sensor_id;sensor_type;location;lat;lon;timestamp;P1;durP1;ratioP1;P2;durP2;ratioP2
25649;SDS011;13505;45.196;5.696;2023-05-18T06:05:25;5.75;;;3.65;;
25649;SDS011;13505;45.196;5.696;2023-05-18T06:10:16;9.83;;;3.83;;
25649;SDS011;13505;45.196;5.696;2023-05-18T06:15:06;7.13;;;4.03;;
25649;SDS011;13505;45.196;5.696;2023-05-18T06:19:57;5.85;;;3.70;;
25649;SDS011;13505;45.196;5.696;2023-05-18T06:24:48;8.60;;;4.22;;
25649;SDS011;13505;45.196;5.696;2023-05-18T06:29:38;7.47;;;3.72;;
25649;SDS011;13505;45.196;5.696;2023-05-18T06:34:28;7.47;;;4.13;;
25649;SDS011;13505;45.196;5.696;2023-05-18T06:39:19;13.85;;;4.50;;
25649;SDS011;13505;45.196;5.696;2023-05-18T06:44:09;7.05;;;3.72;;
25649;SDS011;13505;45.196;5.696;2023-05-18T06:49:00;7.75;;;4.28;;
25649;SDS011;13505;45.196;5.696;2023-05-18T06:53:51;6.75;;;3.92;;
25649;SDS011;13505;45.196;5.696;2023-05-18T06:58:41;10.40;;;4.40;;
25649;SDS011;13505;45.196;5.696;2023-05-18T07:03:32;7.88;;;4.05;;
25649;SDS011;13505;45.196;5.696;2023-05-18T07:08:23;11.52;;;4.10;;
25649;SDS011;13505;45.196;5.696;2023-05-18T07:13:14;7.25;;;4.10;;
25649;SDS011;13505;45.196;5.696;2023-05-18T07:18:04;8.80;;;4.07;;
25649;SDS011;13505;45.196;5.696;2023-05-18T07:22:55;7.30;;;4.15;;
25649;SDS011;13505;45.196;5.696;2023-05-18T07:27:45;9.18;;;4.00;;
25649;SDS011;13505;45.196;5.696;2023-05-18T07:32:35;8.48;;;4.35;;
25649;SDS011;13505;45.196;5.696;2023-05-18T07:37:26;6.85;;;4.13;;
25649;SDS011;13505;45.196;5.696;2023-05-18T07:42:16;7.17;;;3.93;;
25649;SDS011;13505;45.196;5.696;2023-05-18T07:47:07;8.73;;;4.25;;
25649;SDS011;13505;45.196;5.696;2023-05-18T07:51:57;8.73;;;4.03;;
25649;SDS011;13505;45.196;5.696;2023-05-18T07:56:48;8.70;;;3.72;;
25649;SDS011;13505;45.196;5.696;2023-05-18T08:01:39;7.57;;;3.78;;
25649;SDS011;13505;45.196;5.696;2023-05-18T08:06:30;9.18;;;3.72;;
25649;SDS011;13505;45.196;5.696;2023-05-18T08:11:21;11.10;;;4.35;;
25649;SDS011;13505;45.196;5.696;2023-05-18T08:16:12;13.65;;;4.28;;
25649;SDS011;13505;45.196;5.696;2023-05-18T08:21:02;8.65;;;4.30;;
25649;SDS011;13505;45.196;5.696;2023-05-18T08:25:53;11.98;;;4.18;;
25649;SDS011;13505;45.196;5.696;2023-05-18T08:30:45;8.20;;;3.97;;
25649;SDS011;13505;45.196;5.696;2023-05-18T08:35:36;12.77;;;4.57;;
25649;SDS011;13505;45.196;5.696;2023-05-18T08:40:32;7.72;;;4.03;;
25649;SDS011;13505;45.196;5.696;2023-05-18T08:50:29;8.57;;;4.70;;
25649;SDS011;13505;45.196;5.696;2023-05-18T08:55:22;8.35;;;4.38;;
25649;SDS011;13505;45.196;5.696;2023-05-18T09:00:12;6.88;;;4.20;;
25649;SDS011;13505;45.196;5.696;2023-05-18T09:05:04;7.07;;;4.50;;
25649;SDS011;13505;45.196;5.696;2023-05-18T09:09:57;8.30;;;4.65;;
25649;SDS011;13505;45.196;5.696;2023-05-18T09:14:49;8.05;;;4.72;;
25649;SDS011;13505;45.196;5.696;2023-05-18T09:19:40;9.88;;;4.90;;
25649;SDS011;13505;45.196;5.696;2023-05-18T09:24:31;7.15;;;5.03;;
25649;SDS011;13505;45.196;5.696;2023-05-18T09:29:22;9.82;;;4.82;;
25649;SDS011;13505;45.196;5.696;2023-05-18T09:34:13;6.85;;;4.47;;
25649;SDS011;13505;45.196;5.696;2023-05-18T09:39:08;10.82;;;4.80;;
25649;SDS011;13505;45.196;5.696;2023-05-18T09:44:00;8.70;;;4.82;;
25649;SDS011;13505;45.196;5.696;2023-05-18T09:48:54;10.27;;;4.85;;
25649;SDS011;13505;45.196;5.696;2023-05-18T09:54:02;10.50;;;4.90;;
25649;SDS011;13505;45.196;5.696;2023-05-18T09:58:57;9.90;;;5.30;;
25649;SDS011;13505;45.196;5.696;2023-05-18T10:03:47;10.82;;;5.15;;
25649;SDS011;13505;45.196;5.696;2023-05-18T10:08:38;6.45;;;4.55;;
25649;SDS011;13505;45.196;5.696;2023-05-18T10:13:30;7.05;;;4.90;;
25649;SDS011;13505;45.196;5.696;2023-05-18T10:18:22;8.05;;;4.75;;
25649;SDS011;13505;45.196;5.696;2023-05-18T10:23:14;6.85;;;3.75;;
25649;SDS011;13505;45.196;5.696;2023-05-18T10:28:07;9.25;;;4.10;;
25649;SDS011;13505;45.196;5.696;2023-05-18T10:32:59;6.60;;;4.10;;
25649;SDS011;13505;45.196;5.696;2023-05-18T10:37:50;7.72;;;4.40;;
25649;SDS011;13505;45.196;5.696;2023-05-18T10:42:44;9.00;;;4.13;;
25649;SDS011;13505;45.196;5.696;2023-05-18T10:47:35;7.93;;;4.00;;
25649;SDS011;13505;45.196;5.696;2023-05-18T10:52:29;6.90;;;4.10;;
25649;SDS011;13505;45.196;5.696;2023-05-18T10:57:21;8.65;;;4.15;;
25649;SDS011;13505;45.196;5.696;2023-05-18T11:02:14;6.35;;;3.65;;
25649;SDS011;13505;45.196;5.696;2023-05-18T11:07:14;5.95;;;3.97;;
25649;SDS011;13505;45.196;5.696;2023-05-18T11:12:05;7.90;;;4.75;;
25649;SDS011;13505;45.196;5.696;2023-05-18T11:22:11;8.18;;;5.35;;
25649;SDS011;13505;45.196;5.696;2023-05-18T11:27:07;8.55;;;4.95;;
25649;SDS011;13505;45.196;5.696;2023-05-18T11:32:19;12.73;;;5.40;;
25649;SDS011;13505;45.196;5.696;2023-05-18T11:37:15;12.25;;;5.85;;
25649;SDS011;13505;45.196;5.696;2023-05-18T11:42:08;9.20;;;5.80;;
25649;SDS011;13505;45.196;5.696;2023-05-18T11:56:53;9.65;;;5.80;;
25649;SDS011;13505;45.196;5.696;2023-05-18T12:01:44;11.00;;;5.80;;
25649;SDS011;13505;45.196;5.696;2023-05-18T12:06:35;7.78;;;5.53;;
25649;SDS011;13505;45.196;5.696;2023-05-18T12:11:26;10.85;;;5.82;;
25649;SDS011;13505;45.196;5.696;2023-05-18T12:16:17;11.60;;;6.13;;
25649;SDS011;13505;45.196;5.696;2023-05-18T12:21:07;11.23;;;6.18;;
25649;SDS011;13505;45.196;5.696;2023-05-18T12:25:58;13.50;;;6.45;;
25649;SDS011;13505;45.196;5.696;2023-05-18T12:30:48;9.93;;;5.93;;
25649;SDS011;13505;45.196;5.696;2023-05-18T12:35:45;8.70;;;5.75;;
25649;SDS011;13505;45.196;5.696;2023-05-18T12:40:35;9.43;;;5.70;;
25649;SDS011;13505;45.196;5.696;2023-05-18T12:45:35;10.48;;;6.00;;
25649;SDS011;13505;45.196;5.696;2023-05-18T12:50:25;14.83;;;5.70;;
25649;SDS011;13505;45.196;5.696;2023-05-18T12:55:19;9.50;;;5.88;;
25649;SDS011;13505;45.196;5.696;2023-05-18T13:00:10;12.35;;;6.90;;
25649;SDS011;13505;45.196;5.696;2023-05-18T13:05:02;19.70;;;7.00;;
25649;SDS011;13505;45.196;5.696;2023-05-18T13:10:00;9.40;;;6.20;;
25649;SDS011;13505;45.196;5.696;2023-05-18T13:14:51;13.75;;;6.38;;
25649;SDS011;13505;45.196;5.696;2023-05-18T13:19:42;11.07;;;6.28;;
25649;SDS011;13505;45.196;5.696;2023-05-18T13:24:32;10.87;;;5.80;;
25649;SDS011;13505;45.196;5.696;2023-05-18T13:29:23;13.60;;;6.13;;
25649;SDS011;13505;45.196;5.696;2023-05-18T13:34:13;9.87;;;6.23;;
25649;SDS011;13505;45.196;5.696;2023-05-18T13:39:03;11.05;;;6.07;;
25649;SDS011;13505;45.196;5.696;2023-05-18T13:43:56;13.63;;;7.97;;
25649;SDS011;13505;45.196;5.696;2023-05-18T13:48:46;13.50;;;6.63;;
25649;SDS011;13505;45.196;5.696;2023-05-18T13:53:36;12.17;;;6.57;;
25649;SDS011;13505;45.196;5.696;2023-05-18T13:58:27;8.32;;;6.20;;
25649;SDS011;13505;45.196;5.696;2023-05-18T14:03:17;9.43;;;6.13;;
25649;SDS011;13505;45.196;5.696;2023-05-18T14:08:07;11.40;;;6.60;;
25649;SDS011;13505;45.196;5.696;2023-05-18T14:12:58;14.57;;;6.38;;
25649;SDS011;13505;45.196;5.696;2023-05-18T14:17:48;13.23;;;6.40;;
25649;SDS011;13505;45.196;5.696;2023-05-18T14:22:39;10.07;;;6.27;;
25649;SDS011;13505;45.196;5.696;2023-05-18T14:27:29;11.30;;;6.03;;
25649;SDS011;13505;45.196;5.696;2023-05-18T14:32:20;11.45;;;5.93;;
25649;SDS011;13505;45.196;5.696;2023-05-18T14:37:11;16.10;;;5.97;;
25649;SDS011;13505;45.196;5.696;2023-05-18T14:42:01;12.52;;;5.97;;
25649;SDS011;13505;45.196;5.696;2023-05-18T14:46:52;9.82;;;5.95;;
25649;SDS011;13505;45.196;5.696;2023-05-18T14:51:42;13.18;;;6.45;;
25649;SDS011;13505;45.196;5.696;2023-05-18T14:56:32;13.43;;;5.72;;
25649;SDS011;13505;45.196;5.696;2023-05-18T15:01:23;12.18;;;6.18;;
25649;SDS011;13505;45.196;5.696;2023-05-18T15:06:13;13.73;;;6.30;;
25649;SDS011;13505;45.196;5.696;2023-05-18T15:11:04;18.23;;;6.03;;
25649;SDS011;13505;45.196;5.696;2023-05-18T15:15:54;9.98;;;6.47;;
25649;SDS011;13505;45.196;5.696;2023-05-18T15:20:45;11.18;;;5.93;;
25649;SDS011;13505;45.196;5.696;2023-05-18T15:25:36;8.18;;;5.88;;
25649;SDS011;13505;45.196;5.696;2023-05-18T15:30:26;10.98;;;5.93;;
25649;SDS011;13505;45.196;5.696;2023-05-18T15:35:18;12.93;;;6.47;;
25649;SDS011;13505;45.196;5.696;2023-05-18T15:40:09;9.35;;;6.00;;
25649;SDS011;13505;45.196;5.696;2023-05-18T15:44:59;10.38;;;5.57;;
25649;SDS011;13505;45.196;5.696;2023-05-18T15:49:51;12.55;;;6.70;;
25649;SDS011;13505;45.196;5.696;2023-05-18T15:54:42;14.30;;;6.27;;
25649;SDS011;13505;45.196;5.696;2023-05-18T15:59:32;11.87;;;5.80;;
25649;SDS011;13505;45.196;5.696;2023-05-18T16:04:22;9.47;;;5.60;;
25649;SDS011;13505;45.196;5.696;2023-05-18T16:09:13;11.93;;;6.10;;
25649;SDS011;13505;45.196;5.696;2023-05-18T16:14:03;10.73;;;5.72;;
25649;SDS011;13505;45.196;5.696;2023-05-18T16:18:53;11.18;;;6.40;;
25649;SDS011;13505;45.196;5.696;2023-05-18T16:23:44;8.48;;;5.65;;
25649;SDS011;13505;45.196;5.696;2023-05-18T16:28:35;10.27;;;5.50;;
25649;SDS011;13505;45.196;5.696;2023-05-18T16:33:26;12.57;;;6.82;;
25649;SDS011;13505;45.196;5.696;2023-05-18T16:38:16;13.07;;;7.20;;
25649;SDS011;13505;45.196;5.696;2023-05-18T16:43:06;10.40;;;6.77;;
25649;SDS011;13505;45.196;5.696;2023-05-18T16:47:57;13.10;;;6.53;;
25649;SDS011;13505;45.196;5.696;2023-05-18T16:52:49;11.73;;;7.72;;
25649;SDS011;13505;45.196;5.696;2023-05-18T16:57:40;9.80;;;6.43;;
25649;SDS011;13505;45.196;5.696;2023-05-18T17:02:32;11.23;;;6.85;;
25649;SDS011;13505;45.196;5.696;2023-05-18T17:07:22;13.10;;;6.28;;
25649;SDS011;13505;45.196;5.696;2023-05-18T17:12:14;13.38;;;7.65;;
25649;SDS011;13505;45.196;5.696;2023-05-18T17:17:04;11.55;;;6.68;;
25649;SDS011;13505;45.196;5.696;2023-05-18T17:21:55;10.77;;;6.10;;
25649;SDS011;13505;45.196;5.696;2023-05-18T17:26:45;10.40;;;6.75;;
25649;SDS011;13505;45.196;5.696;2023-05-18T17:31:36;9.15;;;6.15;;
25649;SDS011;13505;45.196;5.696;2023-05-18T17:36:26;12.60;;;6.32;;
25649;SDS011;13505;45.196;5.696;2023-05-18T17:41:17;11.02;;;6.25;;
25649;SDS011;13505;45.196;5.696;2023-05-18T17:46:10;10.18;;;6.28;;
25649;SDS011;13505;45.196;5.696;2023-05-18T17:51:00;11.75;;;6.65;;
25649;SDS011;13505;45.196;5.696;2023-05-18T17:55:51;10.23;;;5.68;;
